WWW216 KBNA-KMEM
Flight info
| Callsign | WWW216 |
|---|---|
| Flight time | N/A |
| Altitude | 24000 |
| Route | DANLS4 TPEEE GQE DUMPI |
| Aircraft | B736/M-VGDW/C |
Departure
| Time | N/A |
|---|---|
| Airport | Nashville International Airport (KBNA) |
Arrival
| Time | 2026-05-04 01:29 |
|---|---|
| Airport | Memphis International Airport (KMEM) |
| Time | Latitude | Longitude | Altitude | Speed | Heading |
|---|---|---|---|---|---|
| 2026-05-04 01:10 | 35.55949 | -89.78761 | 30937 ft | 385 kts | 255° |
| 2026-05-04 01:10 | 35.55084 | -89.81870 | 30631 ft | 383 kts | 261° |
| 2026-05-04 01:10 | 35.54578 | -89.85101 | 30026 ft | 389 kts | 266° |
| 2026-05-04 01:11 | 35.54209 | -89.88383 | 29382 ft | 395 kts | 267° |
| 2026-05-04 01:11 | 35.53871 | -89.91755 | 28663 ft | 402 kts | 267° |
| 2026-05-04 01:11 | 35.53560 | -89.95043 | 27873 ft | 404 kts | 267° |
| 2026-05-04 01:11 | 35.53246 | -89.98481 | 27095 ft | 405 kts | 267° |
| 2026-05-04 01:12 | 35.52940 | -90.01931 | 26334 ft | 406 kts | 267° |
| 2026-05-04 01:12 | 35.52644 | -90.05379 | 25592 ft | 407 kts | 267° |
| 2026-05-04 01:12 | 35.52356 | -90.08840 | 24876 ft | 408 kts | 267° |
| 2026-05-04 01:12 | 35.52075 | -90.12306 | 24171 ft | 408 kts | 267° |
| 2026-05-04 01:13 | 35.51802 | -90.15781 | 23459 ft | 409 kts | 267° |
| 2026-05-04 01:13 | 35.51535 | -90.19261 | 22640 ft | 410 kts | 267° |
| 2026-05-04 01:13 | 35.51271 | -90.22746 | 21849 ft | 410 kts | 267° |
| 2026-05-04 01:13 | 35.51010 | -90.26190 | 21087 ft | 410 kts | 267° |
| 2026-05-04 01:14 | 35.50745 | -90.29686 | 20334 ft | 410 kts | 267° |
| 2026-05-04 01:14 | 35.50480 | -90.33177 | 19601 ft | 410 kts | 267° |
| 2026-05-04 01:14 | 35.50213 | -90.36678 | 18887 ft | 410 kts | 267° |
| 2026-05-04 01:14 | 35.50036 | -90.38985 | 18430 ft | 410 kts | 267° |
| 2026-05-04 01:15 | 35.49683 | -90.43614 | 17381 ft | 410 kts | 267° |
| 2026-05-04 01:15 | 35.49421 | -90.47104 | 16611 ft | 410 kts | 267° |
| 2026-05-04 01:15 | 35.49170 | -90.50593 | 15919 ft | 410 kts | 267° |
| 2026-05-04 01:15 | 35.48876 | -90.54031 | 15423 ft | 403 kts | 261° |
| 2026-05-04 01:16 | 35.48315 | -90.56211 | 15079 ft | 404 kts | 248° |
| 2026-05-04 01:16 | 35.46723 | -90.59046 | 14608 ft | 406 kts | 227° |
| 2026-05-04 01:16 | 35.44415 | -90.61048 | 14142 ft | 410 kts | 207° |
| 2026-05-04 01:16 | 35.41664 | -90.61969 | 13648 ft | 413 kts | 187° |
| 2026-05-04 01:17 | 35.38803 | -90.61692 | 13098 ft | 415 kts | 167° |
| 2026-05-04 01:17 | 35.36148 | -90.60265 | 12307 ft | 421 kts | 146° |
| 2026-05-04 01:17 | 35.34054 | -90.57785 | 11881 ft | 414 kts | 124° |
| 2026-05-04 01:17 | 35.32824 | -90.54818 | 11700 ft | 380 kts | 107° |
| 2026-05-04 01:18 | 35.32208 | -90.51781 | 11291 ft | 358 kts | 100° |
| 2026-05-04 01:18 | 35.31746 | -90.48813 | 10549 ft | 351 kts | 99° |
| 2026-05-04 01:18 | 35.31332 | -90.45915 | 10130 ft | 335 kts | 98° |
| 2026-05-04 01:18 | 35.30951 | -90.43216 | 10123 ft | 308 kts | 98° |
| 2026-05-04 01:19 | 35.30657 | -90.40721 | 10088 ft | 285 kts | 92° |
| 2026-05-04 01:19 | 35.30599 | -90.38368 | 9760 ft | 272 kts | 89° |
| 2026-05-04 01:19 | 35.30586 | -90.36083 | 9268 ft | 266 kts | 89° |
| 2026-05-04 01:19 | 35.30583 | -90.33834 | 8784 ft | 262 kts | 88° |
| 2026-05-04 01:20 | 35.30587 | -90.31618 | 8286 ft | 260 kts | 88° |
| 2026-05-04 01:20 | 35.30596 | -90.29412 | 7780 ft | 258 kts | 88° |
| 2026-05-04 01:20 | 35.30608 | -90.27253 | 7297 ft | 256 kts | 88° |
| 2026-05-04 01:20 | 35.30624 | -90.25118 | 6827 ft | 255 kts | 88° |
| 2026-05-04 01:21 | 35.30646 | -90.22922 | 6339 ft | 254 kts | 88° |
| 2026-05-04 01:21 | 35.30670 | -90.20764 | 5837 ft | 253 kts | 88° |
| 2026-05-04 01:21 | 35.30696 | -90.18633 | 5543 ft | 244 kts | 88° |
| 2026-05-04 01:21 | 35.30727 | -90.16574 | 5289 ft | 242 kts | 88° |
| 2026-05-04 01:22 | 35.30780 | -90.14481 | 5076 ft | 248 kts | 88° |
| 2026-05-04 01:22 | 35.30840 | -90.12410 | 4994 ft | 244 kts | 88° |
| 2026-05-04 01:22 | 35.30903 | -90.10358 | 4991 ft | 239 kts | 88° |
| 2026-05-04 01:22 | 35.30970 | -90.08315 | 4766 ft | 240 kts | 88° |
| 2026-05-04 01:23 | 35.31034 | -90.06273 | 4518 ft | 240 kts | 88° |
| 2026-05-04 01:23 | 35.30807 | -90.04270 | 4265 ft | 238 kts | 117° |
| 2026-05-04 01:23 | 35.29818 | -90.02720 | 4032 ft | 230 kts | 145° |
| 2026-05-04 01:23 | 35.28579 | -90.01497 | 3784 ft | 228 kts | 148° |
| 2026-05-04 01:24 | 35.27299 | -90.00372 | 3533 ft | 223 kts | 159° |
| 2026-05-04 01:24 | 35.25922 | -89.99601 | 3293 ft | 217 kts | 166° |
| 2026-05-04 01:24 | 35.24482 | -89.99236 | 3068 ft | 206 kts | 181° |
| 2026-05-04 01:24 | 35.23092 | -89.99136 | 3001 ft | 195 kts | 184° |
| 2026-05-04 01:25 | 35.21766 | -89.99097 | 2978 ft | 187 kts | 184° |
| 2026-05-04 01:25 | 35.20485 | -89.99069 | 2978 ft | 181 kts | 185° |
| 2026-05-04 01:25 | 35.19242 | -89.99042 | 2996 ft | 179 kts | 185° |
| 2026-05-04 01:25 | 35.18000 | -89.99018 | 2842 ft | 176 kts | 185° |
| 2026-05-04 01:26 | 35.16784 | -89.98994 | 2626 ft | 173 kts | 184° |
| 2026-05-04 01:26 | 35.15595 | -89.98972 | 2399 ft | 167 kts | 185° |
| 2026-05-04 01:26 | 35.14478 | -89.98953 | 2195 ft | 155 kts | 184° |
| 2026-05-04 01:26 | 35.13444 | -89.98927 | 1985 ft | 145 kts | 185° |
| 2026-05-04 01:27 | 35.12458 | -89.98906 | 1798 ft | 138 kts | 184° |
| 2026-05-04 01:27 | 35.11514 | -89.98883 | 1618 ft | 133 kts | 184° |
| 2026-05-04 01:27 | 35.10607 | -89.98864 | 1442 ft | 128 kts | 184° |
| 2026-05-04 01:27 | 35.09715 | -89.98839 | 1286 ft | 128 kts | 184° |
| 2026-05-04 01:28 | 35.08811 | -89.98820 | 1105 ft | 133 kts | 186° |
| 2026-05-04 01:28 | 35.07881 | -89.98806 | 919 ft | 133 kts | 183° |
| 2026-05-04 01:28 | 35.06941 | -89.98784 | 727 ft | 137 kts | 182° |
| 2026-05-04 01:28 | 35.06003 | -89.98773 | 572 ft | 136 kts | 184° |
| 2026-05-04 01:29 | 35.05045 | -89.98745 | 384 ft | 140 kts | 183° |
| 2026-05-04 01:29 | 35.04125 | -89.98729 | 330 ft | 121 kts | 179° |
| 2026-05-04 01:29 | 35.03446 | -89.98716 | 330 ft | 56 kts | 179° |
| 2026-05-04 01:29 | 35.03194 | -89.98667 | 330 ft | 33 kts | 157° |
| 2026-05-04 01:30 | 35.03100 | -89.98589 | 329 ft | 0 kts | 134° |
| 2026-05-04 01:31 | 35.03092 | -89.98578 | 329 ft | 4 kts | 131° |
| 2026-05-04 01:31 | 35.03075 | -89.98552 | 326 ft | 4 kts | 129° |
| 2026-05-04 01:31 | 35.03064 | -89.98519 | 330 ft | 5 kts | 96° |
| 2026-05-04 01:32 | 35.03083 | -89.98479 | 329 ft | 7 kts | 29° |
| 2026-05-04 01:32 | 35.03146 | -89.98471 | 327 ft | 11 kts | 359° |
| 2026-05-04 01:32 | 35.03237 | -89.98473 | 327 ft | 16 kts | 359° |
| 2026-05-04 01:32 | 35.03366 | -89.98476 | 328 ft | 21 kts | 359° |
| 2026-05-04 01:33 | 35.03534 | -89.98480 | 327 ft | 27 kts | 359° |
| 2026-05-04 01:33 | 35.03738 | -89.98488 | 329 ft | 32 kts | 357° |
| 2026-05-04 01:33 | 35.03974 | -89.98494 | 329 ft | 36 kts | 359° |
| 2026-05-04 01:33 | 35.04234 | -89.98503 | 328 ft | 40 kts | 1° |
| 2026-05-04 01:34 | 35.04509 | -89.98505 | 327 ft | 38 kts | 359° |
| 2026-05-04 01:34 | 35.04757 | -89.98510 | 327 ft | 33 kts | 359° |
| 2026-05-04 01:34 | 35.04972 | -89.98514 | 327 ft | 29 kts | 359° |
| 2026-05-04 01:34 | 35.05168 | -89.98512 | 328 ft | 27 kts | 0° |
| 2026-05-04 01:35 | 35.05348 | -89.98510 | 326 ft | 25 kts | 0° |
| 2026-05-04 01:35 | 35.05512 | -89.98509 | 327 ft | 23 kts | 1° |
| 2026-05-04 01:35 | 35.05559 | -89.98508 | 327 ft | 1 kts | 1° |
| 2026-05-04 01:35 | 35.05564 | -89.98500 | 327 ft | 2 kts | 57° |
| 2026-05-04 01:36 | 35.05570 | -89.98454 | 329 ft | 9 kts | 90° |
| 2026-05-04 01:36 | 35.05556 | -89.98384 | 328 ft | 9 kts | 132° |
| 2026-05-04 01:36 | 35.05508 | -89.98345 | 329 ft | 5 kts | 142° |
| 2026-05-04 01:36 | 35.05494 | -89.98315 | 326 ft | 4 kts | 86° |
| 2026-05-04 01:37 | 35.05496 | -89.98280 | 329 ft | 4 kts | 88° |
| 2026-05-04 01:37 | 35.05497 | -89.98246 | 329 ft | 5 kts | 89° |
| 2026-05-04 01:37 | 35.05504 | -89.98189 | 329 ft | 9 kts | 78° |
| 2026-05-04 01:37 | 35.05490 | -89.98122 | 326 ft | 8 kts | 126° |
| 2026-05-04 01:38 | 35.05460 | -89.98100 | 327 ft | 2 kts | 175° |
| 2026-05-04 01:38 | 35.05449 | -89.98100 | 327 ft | 0 kts | 180° |